Time;durP1;ratioP1;P1;durP2;ratioP2;P2;SDS_P1;SDS_P2;PMS_P1;PMS_P2;Temp;Humidity;BMP_temperature;BMP_pressure;BME280_temperature;BME280_humidity;BME280_pressure;Samples;Min_cycle;Max_cycle;Signal;HPM_P1;HPM_P2
2021/05/13 00:01:07;;;;;;;1.53;1.10;;;11.10;98.20;;;;;;4963366;28;20496;-85
2021/05/13 00:03:34;;;;;;;1.50;1.10;;;11.10;98.20;;;;;;4980233;28;20511;-85
2021/05/13 00:06:02;;;;;;;1.50;1.10;;;11.10;98.20;;;;;;4959818;28;20502;-85
2021/05/13 00:08:28;;;;;;;1.50;1.10;;;11.00;98.20;;;;;;4969687;28;20492;-85
2021/05/13 00:11:02;;;;;;;1.57;1.17;;;11.10;98.20;;;;;;4962616;28;20458;-85
2021/05/13 00:13:29;;;;;;;1.50;1.10;;;11.00;98.20;;;;;;4985936;28;20541;-82
2021/05/13 00:15:55;;;;;;;1.50;1.20;;;11.00;98.20;;;;;;4960924;28;20488;-82
2021/05/13 00:18:22;;;;;;;1.60;1.20;;;11.00;98.20;;;;;;4979470;28;20462;-83
2021/05/13 00:20:48;;;;;;;1.50;1.10;;;10.90;98.20;;;;;;4970731;28;20524;-83
2021/05/13 00:23:16;;;;;;;1.50;1.10;;;10.90;98.20;;;;;;4983466;28;20504;-83
2021/05/13 00:25:42;;;;;;;1.50;1.20;;;10.90;98.20;;;;;;4968433;28;20466;-82
2021/05/13 00:28:09;;;;;;;1.50;1.10;;;10.80;98.20;;;;;;4976020;28;20517;-82
2021/05/13 00:30:36;;;;;;;1.50;1.20;;;10.80;98.20;;;;;;4967545;28;21024;-83
2021/05/13 00:33:02;;;;;;;1.50;1.10;;;10.70;98.20;;;;;;4979020;28;20512;-82
2021/05/13 00:35:29;;;;;;;1.53;1.10;;;10.70;98.20;;;;;;4970375;28;20606;-82
2021/05/13 00:37:55;;;;;;;1.50;1.10;;;10.70;98.20;;;;;;4978891;28;20574;-82
2021/05/13 00:40:22;;;;;;;1.57;1.20;;;10.70;98.20;;;;;;4971679;28;20493;-82
2021/05/13 00:42:50;;;;;;;1.53;1.20;;;10.70;98.20;;;;;;4973709;28;20616;-82
2021/05/13 00:45:18;;;;;;;1.50;1.13;;;10.60;98.20;;;;;;4968024;28;20466;-82
2021/05/13 00:47:48;;;;;;;1.50;1.10;;;10.60;98.20;;;;;;4973904;28;21123;-83
2021/05/13 00:50:16;;;;;;;1.57;1.20;;;10.60;98.20;;;;;;4967659;28;20466;-83
2021/05/13 00:52:42;;;;;;;1.60;1.20;;;10.60;98.20;;;;;;4973306;28;20546;-82
2021/05/13 00:55:10;;;;;;;1.50;1.10;;;10.60;98.20;;;;;;4972075;28;20798;-82
2021/05/13 00:57:39;;;;;;;1.53;1.10;;;10.60;98.20;;;;;;4978117;28;20493;-82
2021/05/13 01:00:29;;;;;;;1.53;1.10;;;10.60;98.20;;;;;;4967492;28;21117;-82
2021/05/13 01:02:54;;;;;;;1.50;1.10;;;10.60;98.20;;;;;;4972984;28;20492;-82
2021/05/13 01:05:20;;;;;;;1.53;1.10;;;10.60;98.20;;;;;;4969879;28;20466;-83
2021/05/13 01:07:46;;;;;;;1.50;1.10;;;10.60;98.20;;;;;;4975825;28;20526;-82
2021/05/13 01:10:13;;;;;;;1.50;1.10;;;10.60;98.20;;;;;;4972353;28;20784;-82
2021/05/13 01:12:41;;;;;;;1.60;1.27;;;10.50;98.20;;;;;;4968252;28;20484;-83
2021/05/13 01:15:09;;;;;;;2.00;1.83;;;10.50;98.20;;;;;;4975930;28;20458;-83
2021/05/13 01:17:43;;;;;;;1.50;1.20;;;10.50;98.20;;;;;;4970237;28;20791;-84
2021/05/13 01:20:10;;;;;;;1.50;1.10;;;10.50;98.20;;;;;;4975743;28;20490;-82
2021/05/13 01:22:37;;;;;;;1.53;1.10;;;10.50;98.20;;;;;;4974716;28;20485;-85
2021/05/13 01:25:04;;;;;;;1.60;1.20;;;10.50;98.20;;;;;;4969720;28;20474;-81
2021/05/13 01:27:31;;;;;;;1.50;1.03;;;10.50;98.20;;;;;;4964651;28;20485;-83
2021/05/13 01:29:58;;;;;;;1.57;1.20;;;10.40;98.20;;;;;;4970901;28;20847;-82
2021/05/13 01:32:25;;;;;;;1.50;1.20;;;10.40;98.20;;;;;;4958318;28;20482;-82
2021/05/13 01:34:51;;;;;;;1.53;1.20;;;10.40;98.20;;;;;;4959504;28;20865;-82
2021/05/13 01:37:18;;;;;;;1.50;1.20;;;10.40;98.20;;;;;;4963139;28;20903;-82
2021/05/13 01:39:45;;;;;;;1.50;1.10;;;10.40;98.20;;;;;;4972734;28;21119;-83
2021/05/13 01:42:14;;;;;;;1.60;1.23;;;10.40;98.20;;;;;;4975770;28;20571;-81
2021/05/13 01:44:41;;;;;;;1.53;1.20;;;10.40;98.20;;;;;;4973191;28;20473;-82
2021/05/13 01:47:07;;;;;;;1.50;1.17;;;10.30;98.20;;;;;;4969826;28;20489;-81
2021/05/13 01:49:34;;;;;;;1.50;1.10;;;10.30;98.20;;;;;;4983613;28;20540;-81
2021/05/13 01:52:01;;;;;;;1.53;1.20;;;10.30;98.20;;;;;;4974236;28;20494;-82
2021/05/13 01:54:28;;;;;;;1.50;1.10;;;10.30;98.20;;;;;;4980606;28;20526;-82
2021/05/13 01:57:02;;;;;;;1.50;1.20;;;10.20;98.20;;;;;;4966050;28;21004;-81
2021/05/13 01:59:28;;;;;;;1.60;1.30;;;10.20;98.20;;;;;;4978733;28;20576;-82
2021/05/13 02:01:54;;;;;;;1.50;1.20;;;10.20;98.20;;;;;;4973890;28;20485;-82
2021/05/13 02:04:20;;;;;;;1.50;1.10;;;10.20;98.20;;;;;;4977952;28;20686;-81
2021/05/13 02:06:47;;;;;;;1.50;1.20;;;10.20;98.20;;;;;;4971747;28;20583;-82
2021/05/13 02:09:13;;;;;;;1.53;1.20;;;10.10;98.20;;;;;;4977813;28;20458;-82
2021/05/13 02:11:39;;;;;;;1.50;1.10;;;10.10;98.20;;;;;;4967873;28;20705;-81
2021/05/13 02:14:07;;;;;;;1.50;1.20;;;10.10;98.20;;;;;;4978502;28;20470;-82
2021/05/13 02:16:35;;;;;;;1.50;1.20;;;10.00;98.20;;;;;;4978251;28;20488;-84
2021/05/13 02:19:01;;;;;;;1.50;1.20;;;10.00;98.20;;;;;;4986604;28;20472;-81
2021/05/13 02:21:28;;;;;;;1.53;1.20;;;10.00;98.20;;;;;;4975593;28;20716;-84
2021/05/13 02:23:54;;;;;;;1.60;1.20;;;10.00;98.20;;;;;;4978897;28;20466;-84
2021/05/13 02:26:21;;;;;;;1.60;1.20;;;9.90;98.20;;;;;;4966453;28;20497;-83
2021/05/13 02:28:48;;;;;;;1.57;1.20;;;9.90;98.20;;;;;;4984889;28;20469;-83
2021/05/13 02:31:21;;;;;;;1.60;1.30;;;9.90;98.20;;;;;;4968398;28;20543;-84
2021/05/13 02:33:50;;;;;;;1.57;1.23;;;9.90;98.20;;;;;;4984091;28;20465;-84
2021/05/13 02:36:17;;;;;;;1.50;1.20;;;9.80;98.20;;;;;;4967705;28;20512;-83
2021/05/13 02:38:43;;;;;;;1.57;1.20;;;9.80;98.20;;;;;;4990328;28;20978;-85
2021/05/13 02:41:10;;;;;;;1.50;1.20;;;9.80;98.20;;;;;;4966369;28;20482;-82
2021/05/13 02:43:39;;;;;;;1.50;1.10;;;9.70;98.20;;;;;;4979777;28;21016;-84
2021/05/13 02:46:06;;;;;;;1.53;1.20;;;9.70;98.20;;;;;;4967256;28;20482;-84
2021/05/13 02:48:33;;;;;;;1.50;1.20;;;9.70;98.20;;;;;;4976366;28;20470;-83
2021/05/13 02:50:59;;;;;;;1.53;1.20;;;9.70;98.20;;;;;;4969394;28;20466;-84
2021/05/13 02:53:26;;;;;;;1.50;1.20;;;9.70;98.20;;;;;;4986101;28;20476;-83
2021/05/13 02:55:52;;;;;;;1.60;1.23;;;9.60;98.20;;;;;;4965798;28;20537;-83
2021/05/13 02:58:19;;;;;;;1.53;1.20;;;9.60;98.20;;;;;;4982617;28;20569;-83
2021/05/13 03:00:54;;;;;;;1.50;1.20;;;9.60;98.20;;;;;;4979457;28;20524;-83
2021/05/13 03:03:21;;;;;;;1.50;1.20;;;9.60;98.20;;;;;;4962303;28;20478;-84
2021/05/13 03:05:51;;;;;;;1.53;1.20;;;9.60;98.20;;;;;;4967555;28;20923;-83
2021/05/13 03:08:17;;;;;;;1.50;1.20;;;9.50;98.20;;;;;;4979625;28;20498;-84
2021/05/13 03:10:45;;;;;;;1.53;1.20;;;9.50;98.20;;;;;;4969269;28;20549;-84
2021/05/13 03:13:15;;;;;;;1.50;1.20;;;9.50;98.20;;;;;;4962789;28;20484;-83
2021/05/13 03:15:41;;;;;;;1.60;1.27;;;9.50;98.20;;;;;;4965500;28;20478;-84
2021/05/13 03:18:09;;;;;;;1.50;1.20;;;9.50;98.20;;;;;;4975077;28;20526;-81
2021/05/13 03:20:37;;;;;;;1.60;1.20;;;9.50;98.20;;;;;;4978019;28;21074;-84
2021/05/13 03:23:11;;;;;;;1.50;1.20;;;9.50;98.20;;;;;;4970135;28;20542;-83
2021/05/13 03:25:57;;;;;;;1.57;1.20;;;9.50;98.20;;;;;;4970868;28;20462;-82
2021/05/13 03:28:32;;;;;;;1.57;1.20;;;9.50;98.20;;;;;;4957561;28;20489;-84
2021/05/13 03:31:05;;;;;;;1.50;1.10;;;9.50;98.20;;;;;;4962902;28;20840;-82
2021/05/13 03:33:41;;;;;;;1.57;1.27;;;9.50;98.20;;;;;;4983050;28;20469;-83
2021/05/13 03:36:45;;;;;;;1.57;1.20;;;9.50;98.20;;;;;;4974240;23;20585;-82
2021/05/13 03:39:23;;;;;;;1.50;1.10;;;9.50;98.20;;;;;;4924969;29;21014;-83
2021/05/13 03:41:50;;;;;;;1.60;1.20;;;9.50;98.20;;;;;;4914465;29;20514;-84
2021/05/13 03:44:22;;;;;;;1.50;1.20;;;9.40;98.20;;;;;;4973762;28;20940;-87
2021/05/13 03:46:48;;;;;;;1.50;1.20;;;9.40;98.20;;;;;;4989553;28;20490;-85
2021/05/13 03:49:17;;;;;;;1.53;1.20;;;9.40;98.20;;;;;;4997415;28;20470;-88
2021/05/13 03:51:44;;;;;;;1.57;1.20;;;9.40;98.20;;;;;;4991842;28;21078;-85
2021/05/13 03:54:28;;;;;;;1.50;1.20;;;9.40;98.20;;;;;;5000916;28;20520;-87
2021/05/13 03:56:57;;;;;;;1.57;1.20;;;9.40;98.20;;;;;;4981047;28;20505;-88
2021/05/13 03:59:38;;;;;;;1.50;1.20;;;9.40;98.20;;;;;;4992792;28;20519;-86
2021/05/13 04:02:25;;;;;;;1.50;1.20;;;9.40;98.20;;;;;;4992601;28;20625;-85
2021/05/13 04:04:58;;;;;;;1.57;1.20;;;9.40;98.20;;;;;;4989978;28;20557;-85
2021/05/13 04:07:28;;;;;;;1.50;1.20;;;9.40;98.20;;;;;;4994233;28;20484;-88
2021/05/13 04:10:05;;;;;;;1.50;1.10;;;9.40;98.20;;;;;;4993113;28;20465;-85
2021/05/13 04:12:34;;;;;;;1.50;1.10;;;9.40;98.20;;;;;;4999964;28;20887;-87
2021/05/13 04:15:01;;;;;;;1.50;1.20;;;9.50;98.20;;;;;;4995173;28;20540;-86
2021/05/13 04:17:28;;;;;;;1.53;1.20;;;9.50;98.20;;;;;;4995363;28;20482;-86
2021/05/13 04:19:55;;;;;;;1.50;1.20;;;9.50;98.20;;;;;;4994825;28;20481;-88
2021/05/13 04:22:28;;;;;;;1.53;1.17;;;9.50;98.20;;;;;;4980155;28;20473;-88
2021/05/13 04:25:10;;;;;;;1.50;1.03;;;9.50;98.20;;;;;;4991349;28;20983;-88
2021/05/13 04:27:36;;;;;;;1.50;1.20;;;9.50;98.20;;;;;;5000294;28;20492;-87
2021/05/13 04:30:04;;;;;;;1.50;1.10;;;9.50;98.20;;;;;;4989386;28;20552;-85
2021/05/13 04:32:33;;;;;;;1.50;1.20;;;9.50;98.20;;;;;;4997488;28;20595;-86
2021/05/13 04:35:03;;;;;;;1.50;1.20;;;9.60;98.20;;;;;;4996600;28;20469;-87
2021/05/13 04:37:29;;;;;;;1.60;1.23;;;9.60;98.20;;;;;;4997365;28;20563;-87
2021/05/13 04:39:58;;;;;;;1.53;1.20;;;9.70;98.20;;;;;;4995696;28;20845;-87
2021/05/13 04:42:28;;;;;;;1.57;1.20;;;9.70;98.20;;;;;;4987888;28;20564;-87
2021/05/13 04:45:00;;;;;;;1.50;1.13;;;9.70;98.20;;;;;;4995747;28;20461;-86
2021/05/13 04:47:27;;;;;;;1.50;1.10;;;9.80;98.20;;;;;;4994575;28;20504;-86
2021/05/13 04:49:55;;;;;;;1.60;1.30;;;9.80;98.20;;;;;;4993601;28;20496;-87
2021/05/13 04:52:24;;;;;;;1.50;1.17;;;9.80;98.20;;;;;;4998974;28;20865;-87
2021/05/13 04:54:56;;;;;;;1.50;1.20;;;9.90;98.20;;;;;;4986539;28;20527;-87
2021/05/13 04:57:24;;;;;;;1.57;1.20;;;9.90;98.20;;;;;;4993854;28;21345;-87
2021/05/13 04:59:51;;;;;;;1.60;1.30;;;10.00;98.20;;;;;;4989398;28;20489;-87
2021/05/13 05:02:19;;;;;;;1.50;1.20;;;10.00;98.20;;;;;;4988680;28;21098;-86
2021/05/13 05:04:50;;;;;;;1.53;1.20;;;10.20;98.20;;;;;;4990289;28;20499;-86
2021/05/13 05:07:17;;;;;;;1.50;1.10;;;10.30;98.20;;;;;;4990461;28;20488;-86
2021/05/13 05:09:45;;;;;;;1.50;1.10;;;10.50;98.20;;;;;;4992307;28;20464;-86
2021/05/13 05:12:13;;;;;;;1.50;1.10;;;10.60;98.20;;;;;;4988710;28;20637;-87
2021/05/13 05:14:41;;;;;;;1.60;1.20;;;10.70;98.20;;;;;;5002076;28;20926;-88
2021/05/13 05:17:14;;;;;;;1.50;1.10;;;10.90;98.20;;;;;;5001332;28;20518;-86
2021/05/13 05:19:41;;;;;;;1.53;1.20;;;11.10;98.20;;;;;;4999970;28;20495;-84
2021/05/13 05:22:07;;;;;;;1.50;1.10;;;11.20;98.20;;;;;;4997600;28;20483;-84
2021/05/13 05:24:37;;;;;;;1.57;1.20;;;11.30;98.20;;;;;;5002829;28;20560;-84
2021/05/13 05:27:08;;;;;;;1.60;1.20;;;11.50;98.20;;;;;;4991754;28;20480;-87
2021/05/13 05:29:42;;;;;;;1.53;1.10;;;11.50;98.20;;;;;;4999307;28;20523;-88
2021/05/13 05:32:10;;;;;;;1.50;1.10;;;11.60;98.20;;;;;;4997987;28;20480;-86
2021/05/13 05:34:36;;;;;;;1.50;1.07;;;11.70;98.20;;;;;;5003362;28;20480;-87
2021/05/13 05:37:03;;;;;;;1.50;1.00;;;11.90;98.20;;;;;;4999318;28;20959;-87
2021/05/13 05:39:30;;;;;;;1.53;1.10;;;12.10;98.20;;;;;;5006782;28;20488;-86
2021/05/13 05:41:57;;;;;;;1.60;1.13;;;12.20;98.20;;;;;;4998144;28;20504;-87
2021/05/13 05:45:20;;;;;;;1.60;1.10;;;12.50;98.20;;;;;;4998691;23;20452;-83
2021/05/13 05:48:04;;;;;;;1.50;1.00;;;12.70;98.20;;;;;;4926782;28;20476;-82
2021/05/13 05:50:33;;;;;;;3.23;2.30;;;13.00;98.20;;;;;;4957221;28;20507;-81
2021/05/13 05:53:01;;;;;;;1.50;1.10;;;13.30;98.20;;;;;;4981088;28;20531;-81
2021/05/13 05:55:28;;;;;;;1.50;1.07;;;13.50;98.20;;;;;;4977144;28;20482;-81
2021/05/13 05:57:54;;;;;;;1.60;1.10;;;13.70;98.20;;;;;;4963184;28;20634;-81
2021/05/13 06:00:21;;;;;;;1.60;1.10;;;13.90;98.20;;;;;;4957927;28;20586;-83
2021/05/13 06:02:51;;;;;;;1.50;1.00;;;14.00;98.20;;;;;;4959905;28;20486;-82
2021/05/13 06:05:18;;;;;;;1.50;1.00;;;14.20;98.20;;;;;;4953268;29;20497;-80
2021/05/13 06:07:45;;;;;;;1.50;1.00;;;14.40;98.20;;;;;;4957710;28;20490;-83
2021/05/13 06:10:13;;;;;;;1.57;1.10;;;14.70;98.20;;;;;;4955045;28;20501;-82
2021/05/13 06:12:41;;;;;;;1.50;1.00;;;14.90;98.20;;;;;;4950955;28;20500;-81
2021/05/13 06:15:09;;;;;;;1.50;1.00;;;15.10;98.20;;;;;;4945964;28;20494;-80
2021/05/13 06:17:36;;;;;;;1.50;1.00;;;15.30;98.20;;;;;;4955805;28;20498;-79
2021/05/13 06:20:16;;;;;;;1.50;1.00;;;15.30;97.50;;;;;;4956227;28;20537;-82
2021/05/13 06:22:42;;;;;;;1.57;1.00;;;15.40;97.90;;;;;;4957047;28;20505;-82
2021/05/13 06:25:10;;;;;;;1.60;1.10;;;15.60;97.40;;;;;;4952930;29;20490;-81
2021/05/13 06:27:39;;;;;;;14.37;2.07;;;15.70;96.00;;;;;;4962739;28;20532;-81
2021/05/13 06:30:27;;;;;;;1.50;1.00;;;15.80;96.20;;;;;;4949823;28;20474;-81
2021/05/13 06:33:08;;;;;;;1.50;1.00;;;15.80;95.60;;;;;;4946287;28;20541;-80
2021/05/13 06:38:59;;;;;;;1.50;1.00;;;16.20;95.40;;;;;;4932971;29;20555;-82
2021/05/13 06:41:28;;;;;;;1.50;0.90;;;16.40;95.60;;;;;;4942456;28;20535;-82
2021/05/13 06:43:57;;;;;;;1.50;1.00;;;16.60;94.60;;;;;;4963106;28;21345;-81
2021/05/13 06:46:24;;;;;;;1.50;0.90;;;16.80;93.90;;;;;;4951084;28;21012;-82
2021/05/13 06:48:56;;;;;;;1.50;0.90;;;17.00;93.60;;;;;;4959483;28;20486;-81
2021/05/13 06:51:47;;;;;;;1.50;0.90;;;17.20;93.80;;;;;;4949935;28;20891;-82
2021/05/13 06:57:01;;;;;;;1.50;1.00;;;17.60;92.60;;;;;;4938295;28;20473;-79
2021/05/13 07:00:04;;;;;;;1.50;1.00;;;17.80;92.20;;;;;;4972283;28;20469;-79
2021/05/13 07:03:06;;;;;;;1.50;0.90;;;17.90;91.60;;;;;;4902532;28;20552;-81
2021/05/13 07:06:23;;;;;;;;;;;;;;;;;;;;;
2021/05/13 07:09:02;;;;;;;1.50;0.90;;;18.50;90.40;;;;;;4879373;28;20521;-80
2021/05/13 07:12:16;;;;;;;1.53;0.93;;;18.60;89.90;;;;;;4968273;28;20493;-80
2021/05/13 07:15:20;;;;;;;;;;;;;;;;;;;;;
2021/05/13 07:18:15;;;;;;;1.50;1.00;;;18.50;89.40;;;;;;4968883;28;20515;-80
2021/05/13 07:20:45;;;;;;;1.50;0.90;;;18.30;89.90;;;;;;4970685;28;20490;-80
2021/05/13 07:23:12;;;;;;;1.50;0.90;;;18.50;89.60;;;;;;4955556;28;20482;-79
2021/05/13 07:25:47;;;;;;;1.50;1.00;;;18.70;89.90;;;;;;4969388;28;20861;-81
2021/05/13 07:28:45;;;;;;;1.50;0.90;;;19.10;89.20;;;;;;4957947;28;20573;-79
2021/05/13 07:31:24;;;;;;;1.60;1.20;;;19.30;88.40;;;;;;4915656;29;20477;-81
2021/05/13 07:34:06;;;;;;;1.50;1.00;;;19.60;88.40;;;;;;4932288;29;20471;-80
2021/05/13 07:40:03;;;;;;;1.53;1.00;;;20.00;85.20;;;;;;4921575;28;20827;-80
2021/05/13 07:43:21;;;;;;;1.50;0.90;;;20.00;84.80;;;;;;4947582;28;20481;-80
2021/05/13 07:48:50;;;;;;;1.90;1.53;;;20.10;85.70;;;;;;5102072;27;872386;-78
2021/05/13 07:51:46;;;;;;;1.50;0.90;;;20.40;86.00;;;;;;5094129;28;20221;-80
2021/05/13 07:54:41;;;;;;;;;;;;;;;;;;;;;
2021/05/13 07:57:08;;;;;;;1.50;0.90;;;20.40;85.20;;;;;;5053056;28;20832;-79
2021/05/13 07:59:55;;;;;;;1.53;0.90;;;20.50;83.60;;;;;;5075221;28;20461;-79
2021/05/13 08:02:48;;;;;;;1.50;1.00;;;20.60;83.30;;;;;;5066179;28;20626;-80
2021/05/13 08:05:22;;;;;;;1.53;0.90;;;20.80;84.30;;;;;;5080388;28;20476;-78
2021/05/13 08:08:06;;;;;;;1.50;0.90;;;20.90;84.20;;;;;;5056592;28;20485;-79
2021/05/13 08:10:33;;;;;;;1.50;0.97;;;21.10;83.80;;;;;;5081570;28;20469;-79
2021/05/13 08:13:25;;;;;;;1.50;0.90;;;21.30;81.40;;;;;;5054112;28;20540;-79
2021/05/13 08:16:11;;;;;;;1.50;0.90;;;21.20;82.20;;;;;;5070612;28;20564;-79
2021/05/13 08:19:06;;;;;;;1.50;0.90;;;21.30;81.80;;;;;;5073497;28;20453;-77
2021/05/13 08:21:39;;;;;;;1.50;0.90;;;21.40;81.40;;;;;;5068684;28;20480;-79
2021/05/13 08:24:06;;;;;;;1.50;0.90;;;21.30;81.40;;;;;;5074964;28;20454;-79
2021/05/13 08:26:35;;;;;;;1.50;0.90;;;21.20;80.90;;;;;;5073847;28;20476;-80
2021/05/13 08:29:10;;;;;;;1.50;0.90;;;21.30;79.90;;;;;;5076822;28;20943;-79
2021/05/13 08:31:38;;;;;;;1.50;0.90;;;21.20;79.50;;;;;;5073609;28;20567;-78
2021/05/13 08:34:05;;;;;;;1.50;0.90;;;21.10;80.40;;;;;;5077446;28;20458;-80
2021/05/13 08:36:31;;;;;;;1.50;0.90;;;21.10;79.70;;;;;;5075585;28;20492;-79
2021/05/13 08:39:00;;;;;;;1.50;0.90;;;21.20;81.00;;;;;;5075869;28;20802;-79
2021/05/13 08:41:34;;;;;;;1.50;1.00;;;21.50;79.50;;;;;;5075960;28;20476;-78
2021/05/13 08:44:22;;;;;;;1.50;0.90;;;21.60;78.50;;;;;;5077994;28;20477;-81
2021/05/13 08:46:58;;;;;;;1.50;0.90;;;21.50;76.20;;;;;;5083273;28;20472;-78
2021/05/13 08:49:26;;;;;;;1.50;0.83;;;21.40;76.90;;;;;;5089144;28;20468;-79
2021/05/13 08:51:53;;;;;;;1.50;0.90;;;21.40;77.00;;;;;;5071557;28;20897;-80
2021/05/13 08:54:25;;;;;;;1.50;0.90;;;21.40;78.00;;;;;;5072501;28;20537;-81
2021/05/13 08:56:52;;;;;;;1.50;0.90;;;21.40;77.60;;;;;;5072147;28;20560;-81
2021/05/13 08:59:25;;;;;;;1.50;0.90;;;21.50;77.50;;;;;;5076017;28;20472;-83
2021/05/13 09:01:56;;;;;;;1.50;0.90;;;21.60;76.00;;;;;;5058916;28;20482;-79
2021/05/13 09:04:50;;;;;;;1.50;1.00;;;21.50;76.50;;;;;;5067976;28;20515;-80
2021/05/13 09:07:22;;;;;;;1.50;0.90;;;21.70;76.90;;;;;;5044768;28;21087;-80
2021/05/13 09:10:01;;;;;;;1.50;0.90;;;21.90;75.70;;;;;;5060653;28;20458;-82
2021/05/13 09:12:31;;;;;;;1.50;0.90;;;22.30;75.50;;;;;;5048299;28;20474;-81
2021/05/13 09:15:02;;;;;;;1.50;0.90;;;22.50;76.10;;;;;;5068298;28;20473;-80
2021/05/13 09:17:37;;;;;;;1.50;0.87;;;22.70;75.80;;;;;;5042861;28;20481;-80
2021/05/13 09:20:23;;;;;;;1.50;0.90;;;22.90;75.10;;;;;;5057117;28;20462;-80
2021/05/13 09:22:49;;;;;;;1.50;0.90;;;23.00;72.90;;;;;;5042676;28;20509;-81
2021/05/13 09:25:25;;;;;;;1.50;0.90;;;23.20;73.50;;;;;;5070193;28;20520;-80
2021/05/13 09:28:05;;;;;;;1.50;0.90;;;23.30;72.30;;;;;;5045268;28;20563;-79
2021/05/13 09:30:46;;;;;;;1.50;0.83;;;23.40;70.00;;;;;;5065113;28;20545;-80
2021/05/13 09:33:17;;;;;;;1.50;0.90;;;23.50;71.30;;;;;;5032590;28;21007;-80
2021/05/13 09:35:46;;;;;;;1.50;0.90;;;23.30;70.70;;;;;;5066676;28;20841;-79
2021/05/13 09:38:13;;;;;;;1.50;0.87;;;23.20;70.10;;;;;;5039185;28;20562;-82
2021/05/13 09:40:52;;;;;;;1.50;0.90;;;23.30;68.60;;;;;;5066308;28;20676;-80
2021/05/13 09:46:31;;;;;;;1.50;1.00;;;23.30;67.10;;;;;;5036401;28;20496;-81
2021/05/13 09:48:58;;;;;;;1.50;0.80;;;23.40;67.30;;;;;;5064996;28;20835;-80
2021/05/13 09:51:31;;;;;;;1.50;0.90;;;23.50;68.10;;;;;;5050537;28;20580;-80
2021/05/13 09:54:12;;;;;;;1.50;0.90;;;23.70;67.80;;;;;;5061418;28;20556;-80
2021/05/13 09:56:50;;;;;;;1.50;0.90;;;24.00;67.50;;;;;;5047806;28;21095;-80
2021/05/13 10:02:14;;;;;;;1.50;0.90;;;24.50;65.90;;;;;;5037604;28;20473;-79
2021/05/13 10:04:42;;;;;;;1.50;0.90;;;24.70;67.00;;;;;;5057204;28;20505;-80
2021/05/13 10:07:09;;;;;;;1.50;0.90;;;24.90;67.20;;;;;;5053231;28;20505;-80
2021/05/13 10:09:46;;;;;;;1.50;0.90;;;25.00;66.30;;;;;;5058621;28;20460;-80
2021/05/13 10:12:18;;;;;;;1.50;0.80;;;25.30;65.70;;;;;;5043504;28;20925;-79
2021/05/13 10:14:48;;;;;;;1.50;0.90;;;25.40;64.10;;;;;;5052145;28;20843;-80
2021/05/13 10:17:15;;;;;;;1.50;0.90;;;25.40;64.70;;;;;;5045839;28;20482;-79
2021/05/13 10:19:56;;;;;;;1.50;0.80;;;25.50;66.40;;;;;;5057761;28;20529;-80
2021/05/13 10:22:25;;;;;;;1.50;0.80;;;25.50;63.90;;;;;;5036110;28;20481;-79
2021/05/13 10:25:22;;;;;;;1.50;0.80;;;25.70;62.50;;;;;;5057952;28;21079;-81
2021/05/13 10:28:04;;;;;;;1.50;0.90;;;25.50;62.90;;;;;;5054060;28;20487;-80
2021/05/13 10:30:32;;;;;;;1.50;0.90;;;25.60;64.50;;;;;;5062747;28;20525;-80
2021/05/13 10:33:16;;;;;;;1.50;0.90;;;25.80;63.40;;;;;;5048458;28;20480;-80
2021/05/13 10:36:05;;;;;;;1.50;0.83;;;25.60;62.90;;;;;;5062595;28;20811;-80
2021/05/13 10:38:49;;;;;;;1.50;0.87;;;25.60;63.80;;;;;;5011977;28;20482;-80
2021/05/13 10:41:44;;;;;;;1.50;0.80;;;25.50;63.00;;;;;;5034481;28;20480;-80
2021/05/13 10:44:45;;;;;;;1.50;0.80;;;25.50;60.90;;;;;;5056352;28;21115;-80
2021/05/13 10:47:32;;;;;;;1.50;0.90;;;25.00;63.60;;;;;;4954284;28;20512;-80
2021/05/13 10:50:04;;;;;;;1.50;0.90;;;24.90;64.00;;;;;;5029249;28;20518;-80
2021/05/13 10:52:44;;;;;;;1.50;0.80;;;24.80;65.80;;;;;;5027991;28;20824;-80
2021/05/13 10:55:35;;;;;;;1.50;0.90;;;24.80;63.40;;;;;;5034006;28;20490;-80
2021/05/13 10:58:11;;;;;;;;;;;;;;;;;;;;;
2021/05/13 11:00:47;;;;;;;1.50;0.90;;;24.70;61.80;;;;;;5033602;28;21116;-80
2021/05/13 11:03:21;;;;;;;1.50;0.90;;;24.60;61.90;;;;;;5025601;28;20497;-80
2021/05/13 11:05:51;;;;;;;1.50;0.90;;;24.50;61.50;;;;;;5022170;28;20493;-79
2021/05/13 11:08:47;;;;;;;1.47;0.80;;;24.50;62.90;;;;;;5052307;28;20555;-79
2021/05/13 11:11:23;;;;;;;1.50;0.80;;;24.70;64.00;;;;;;5033634;28;20611;-79
2021/05/13 11:13:51;;;;;;;1.50;0.90;;;25.00;62.70;;;;;;5046757;28;20458;-80
2021/05/13 11:16:49;;;;;;;1.50;0.90;;;25.10;60.70;;;;;;5031198;28;20480;-80
2021/05/13 11:19:18;;;;;;;1.50;0.90;;;25.30;62.00;;;;;;5042421;28;20536;-80
2021/05/13 11:22:11;;;;;;;1.50;0.90;;;25.60;60.80;;;;;;5028478;28;20481;-79
2021/05/13 11:24:53;;;;;;;1.50;0.90;;;25.60;60.10;;;;;;5038460;28;20580;-79
2021/05/13 11:27:31;;;;;;;1.50;0.90;;;25.60;60.70;;;;;;5035174;28;20477;-79
2021/05/13 11:29:58;;;;;;;1.50;0.90;;;25.80;60.80;;;;;;5036604;28;20509;-79
2021/05/13 11:32:30;;;;;;;1.50;0.80;;;26.10;59.60;;;;;;5035090;28;20873;-80
2021/05/13 11:34:58;;;;;;;1.50;0.90;;;26.20;59.80;;;;;;5039030;28;20492;-79
2021/05/13 11:37:50;;;;;;;1.50;0.90;;;26.20;59.30;;;;;;5030762;28;20473;-79
2021/05/13 11:40:28;;;;;;;1.50;0.80;;;26.50;59.70;;;;;;5041740;28;20546;-79
2021/05/13 11:43:19;;;;;;;1.50;0.90;;;26.60;59.80;;;;;;5027923;28;20848;-79
2021/05/13 11:45:47;;;;;;;1.50;0.90;;;26.70;58.10;;;;;;5039285;28;20486;-79
2021/05/13 11:48:31;;;;;;;1.50;0.87;;;26.60;57.10;;;;;;5019495;28;20509;-79
2021/05/13 11:51:03;;;;;;;1.50;0.80;;;26.80;59.00;;;;;;5029733;28;20691;-79
2021/05/13 11:53:32;;;;;;;1.50;0.90;;;26.90;57.90;;;;;;5035650;28;20561;-79
2021/05/13 11:55:59;;;;;;;1.50;0.90;;;27.00;55.40;;;;;;5022753;28;20516;-79
2021/05/13 11:58:46;;;;;;;1.50;0.80;;;27.20;57.60;;;;;;5052590;28;20531;-80
2021/05/13 12:01:24;;;;;;;1.47;0.90;;;27.30;54.20;;;;;;5026245;28;20514;-79
2021/05/13 12:04:03;;;;;;;1.50;0.90;;;27.30;56.00;;;;;;5037130;28;20491;-80
2021/05/13 12:06:43;;;;;;;1.50;0.90;;;27.50;57.50;;;;;;5028711;28;20539;-80
2021/05/13 12:09:16;;;;;;;1.50;0.90;;;27.70;57.00;;;;;;5047585;28;20469;-80
2021/05/13 12:12:00;;;;;;;1.50;0.80;;;27.70;55.50;;;;;;5024901;28;20518;-80
2021/05/13 12:14:31;;;;;;;1.43;0.87;;;27.70;55.80;;;;;;5031113;28;20596;-80
2021/05/13 12:17:02;;;;;;;1.50;0.80;;;27.80;53.50;;;;;;5028679;28;21061;-80
2021/05/13 12:19:33;;;;;;;1.50;0.80;;;28.00;55.90;;;;;;5040902;28;20466;-78
2021/05/13 12:22:02;;;;;;;1.50;0.90;;;28.20;53.40;;;;;;5034252;28;21089;-78
2021/05/13 12:24:41;;;;;;;1.43;0.80;;;28.20;54.00;;;;;;5038720;28;20508;-78
2021/05/13 12:27:14;;;;;;;1.50;0.80;;;28.30;53.80;;;;;;5037775;28;20563;-78
2021/05/13 12:32:32;;;;;;;1.50;0.80;;;28.30;53.50;;;;;;5033354;28;20476;-77
2021/05/13 12:35:00;;;;;;;1.50;0.80;;;28.20;51.10;;;;;;5045725;28;21084;-79
2021/05/13 12:37:29;;;;;;;1.47;0.80;;;28.20;54.80;;;;;;5031434;28;20477;-78
2021/05/13 12:40:01;;;;;;;1.50;0.80;;;27.90;52.10;;;;;;5041737;28;20466;-78
2021/05/13 12:42:37;;;;;;;1.50;0.80;;;27.80;54.00;;;;;;5027435;28;20481;-79
2021/05/13 12:45:18;;;;;;;1.50;0.90;;;27.80;54.30;;;;;;5039870;28;20559;-78
2021/05/13 12:47:55;;;;;;;1.43;0.80;;;27.80;54.30;;;;;;5027158;28;20482;-79
2021/05/13 12:50:25;;;;;;;1.47;0.80;;;27.90;56.50;;;;;;5038213;28;20559;-78
2021/05/13 12:53:12;;;;;;;1.43;0.80;;;27.90;54.80;;;;;;5033817;28;20566;-78
2021/05/13 12:55:46;;;;;;;1.80;1.17;;;28.00;53.50;;;;;;5039090;28;21018;-79
2021/05/13 12:58:20;;;;;;;1.50;0.80;;;28.20;54.60;;;;;;5010651;28;20925;-79
2021/05/13 13:00:58;;;;;;;1.43;0.80;;;28.30;52.30;;;;;;5030136;28;20554;-79
2021/05/13 13:03:34;;;;;;;1.43;0.80;;;28.40;53.40;;;;;;5041035;28;20472;-79
2021/05/13 13:06:13;;;;;;;1.47;0.80;;;28.40;52.70;;;;;;5026868;28;20492;-78
2021/05/13 13:08:44;;;;;;;1.50;0.80;;;28.30;55.20;;;;;;5051055;28;20523;-79
2021/05/13 13:11:12;;;;;;;1.47;0.80;;;28.30;51.50;;;;;;5022785;28;20572;-79
2021/05/13 13:13:44;;;;;;;1.47;0.80;;;27.90;50.80;;;;;;5042243;28;20493;-79
2021/05/13 13:16:20;;;;;;;1.50;0.80;;;27.60;53.50;;;;;;5026052;28;20532;-79
2021/05/13 13:18:47;;;;;;;1.50;0.90;;;27.40;53.10;;;;;;5038949;28;20497;-78
2021/05/13 13:21:16;;;;;;;1.43;0.80;;;27.10;54.00;;;;;;5027022;28;21035;-78
2021/05/13 13:23:47;;;;;;;1.50;0.87;;;27.10;54.20;;;;;;5048442;28;20466;-78
2021/05/13 13:26:17;;;;;;;1.50;0.90;;;27.00;53.40;;;;;;5029637;28;20488;-79
2021/05/13 13:28:56;;;;;;;1.50;0.90;;;26.90;53.20;;;;;;5045425;28;20470;-79
2021/05/13 13:31:25;;;;;;;1.47;0.80;;;26.60;53.20;;;;;;5033262;28;20547;-79
2021/05/13 13:34:00;;;;;;;1.60;0.90;;;26.80;55.40;;;;;;5042956;28;20554;-80
2021/05/13 13:36:31;;;;;;;1.50;0.80;;;27.10;53.40;;;;;;5031319;28;20600;-78
2021/05/13 13:38:58;;;;;;;1.47;0.80;;;27.40;54.20;;;;;;5042618;28;20521;-78
2021/05/13 13:41:26;;;;;;;1.50;0.80;;;27.90;53.70;;;;;;5032468;28;20536;-79
2021/05/13 13:44:01;;;;;;;1.43;0.90;;;28.20;54.60;;;;;;5040266;28;20546;-79
2021/05/13 13:46:30;;;;;;;1.47;0.90;;;28.30;51.70;;;;;;5023470;28;20477;-79